sensor_id;sensor_type;location;lat;lon;timestamp;temperature;humidity
23120;DHT22;11729;50.836;4.330;2023-06-10T00:02:20;24.20;89.60
23120;DHT22;11729;50.836;4.330;2023-06-10T00:04:46;24.20;89.80
23120;DHT22;11729;50.836;4.330;2023-06-10T00:07:13;24.10;90.20
23120;DHT22;11729;50.836;4.330;2023-06-10T00:09:38;24.10;90.70
23120;DHT22;11729;50.836;4.330;2023-06-10T00:12:06;24.20;90.80
23120;DHT22;11729;50.836;4.330;2023-06-10T00:14:38;24.20;90.30
23120;DHT22;11729;50.836;4.330;2023-06-10T00:17:05;24.10;90.60
23120;DHT22;11729;50.836;4.330;2023-06-10T00:19:36;24.00;90.80
23120;DHT22;11729;50.836;4.330;2023-06-10T00:22:01;24.10;90.80
23120;DHT22;11729;50.836;4.330;2023-06-10T00:24:28;24.00;91.00
23120;DHT22;11729;50.836;4.330;2023-06-10T00:26:54;23.70;91.50
23120;DHT22;11729;50.836;4.330;2023-06-10T00:29:19;23.70;92.10
23120;DHT22;11729;50.836;4.330;2023-06-10T00:31:45;23.70;92.00
23120;DHT22;11729;50.836;4.330;2023-06-10T00:34:12;23.80;91.80
23120;DHT22;11729;50.836;4.330;2023-06-10T00:36:38;23.90;91.70
23120;DHT22;11729;50.836;4.330;2023-06-10T00:39:03;23.90;91.90
23120;DHT22;11729;50.836;4.330;2023-06-10T00:41:30;23.90;91.90
23120;DHT22;11729;50.836;4.330;2023-06-10T00:43:56;23.90;92.00
23120;DHT22;11729;50.836;4.330;2023-06-10T00:46:23;23.90;92.10
23120;DHT22;11729;50.836;4.330;2023-06-10T00:48:49;23.90;91.90
23120;DHT22;11729;50.836;4.330;2023-06-10T00:51:16;23.80;92.10
23120;DHT22;11729;50.836;4.330;2023-06-10T00:53:42;23.80;92.10
23120;DHT22;11729;50.836;4.330;2023-06-10T00:56:08;23.60;92.50
23120;DHT22;11729;50.836;4.330;2023-06-10T00:58:35;23.60;92.90
23120;DHT22;11729;50.836;4.330;2023-06-10T01:01:01;23.70;92.60
23120;DHT22;11729;50.836;4.330;2023-06-10T01:03:27;23.70;93.00
23120;DHT22;11729;50.836;4.330;2023-06-10T01:09:00;23.60;92.90
23120;DHT22;11729;50.836;4.330;2023-06-10T01:11:40;23.70;92.90
23120;DHT22;11729;50.836;4.330;2023-06-10T01:14:07;23.60;93.20
23120;DHT22;11729;50.836;4.330;2023-06-10T01:16:34;23.50;93.30
23120;DHT22;11729;50.836;4.330;2023-06-10T01:19:03;23.50;93.10
23120;DHT22;11729;50.836;4.330;2023-06-10T01:21:29;23.60;93.10
23120;DHT22;11729;50.836;4.330;2023-06-10T01:23:56;23.60;93.30
23120;DHT22;11729;50.836;4.330;2023-06-10T01:26:28;23.50;93.40
23120;DHT22;11729;50.836;4.330;2023-06-10T01:29:00;23.40;93.80
23120;DHT22;11729;50.836;4.330;2023-06-10T01:31:43;23.30;94.10
23120;DHT22;11729;50.836;4.330;2023-06-10T01:34:15;23.30;94.10
23120;DHT22;11729;50.836;4.330;2023-06-10T01:36:45;23.40;94.00
23120;DHT22;11729;50.836;4.330;2023-06-10T01:39:11;23.40;94.00
23120;DHT22;11729;50.836;4.330;2023-06-10T01:41:38;23.30;94.40
23120;DHT22;11729;50.836;4.330;2023-06-10T01:44:06;23.20;94.60
23120;DHT22;11729;50.836;4.330;2023-06-10T01:46:31;23.30;94.60
23120;DHT22;11729;50.836;4.330;2023-06-10T01:48:57;23.20;94.70
23120;DHT22;11729;50.836;4.330;2023-06-10T01:51:26;23.30;94.60
23120;DHT22;11729;50.836;4.330;2023-06-10T01:53:51;23.20;95.00
23120;DHT22;11729;50.836;4.330;2023-06-10T01:56:21;23.10;95.20
23120;DHT22;11729;50.836;4.330;2023-06-10T01:58:46;23.10;94.90
23120;DHT22;11729;50.836;4.330;2023-06-10T02:01:12;23.20;94.90
23120;DHT22;11729;50.836;4.330;2023-06-10T02:03:38;23.10;95.20
23120;DHT22;11729;50.836;4.330;2023-06-10T02:06:04;23.20;95.40
23120;DHT22;11729;50.836;4.330;2023-06-10T02:08:29;23.30;94.90
23120;DHT22;11729;50.836;4.330;2023-06-10T02:10:55;23.30;95.10
23120;DHT22;11729;50.836;4.330;2023-06-10T02:13:20;23.20;95.10
23120;DHT22;11729;50.836;4.330;2023-06-10T02:15:46;23.10;95.30
23120;DHT22;11729;50.836;4.330;2023-06-10T02:18:12;23.20;95.30
23120;DHT22;11729;50.836;4.330;2023-06-10T02:20:38;23.30;95.20
23120;DHT22;11729;50.836;4.330;2023-06-10T02:23:03;23.20;95.20
23120;DHT22;11729;50.836;4.330;2023-06-10T02:25:29;23.10;95.40
23120;DHT22;11729;50.836;4.330;2023-06-10T02:27:55;23.10;95.60
23120;DHT22;11729;50.836;4.330;2023-06-10T02:30:21;23.10;95.80
23120;DHT22;11729;50.836;4.330;2023-06-10T02:32:46;23.10;96.10
23120;DHT22;11729;50.836;4.330;2023-06-10T02:35:14;23.10;96.10
23120;DHT22;11729;50.836;4.330;2023-06-10T02:37:40;22.90;96.60
23120;DHT22;11729;50.836;4.330;2023-06-10T02:40:06;22.70;97.30
23120;DHT22;11729;50.836;4.330;2023-06-10T02:42:32;22.70;97.60
23120;DHT22;11729;50.836;4.330;2023-06-10T02:44:58;22.60;98.00
23120;DHT22;11729;50.836;4.330;2023-06-10T02:47:24;22.70;98.00
23120;DHT22;11729;50.836;4.330;2023-06-10T02:49:49;22.50;98.80
23120;DHT22;11729;50.836;4.330;2023-06-10T02:52:15;22.40;99.00
23120;DHT22;11729;50.836;4.330;2023-06-10T02:54:41;22.50;99.10
23120;DHT22;11729;50.836;4.330;2023-06-10T02:57:07;22.40;99.40
23120;DHT22;11729;50.836;4.330;2023-06-10T02:59:33;22.40;99.70
23120;DHT22;11729;50.836;4.330;2023-06-10T03:01:58;22.60;99.70
23120;DHT22;11729;50.836;4.330;2023-06-10T03:04:26;22.70;99.60
23120;DHT22;11729;50.836;4.330;2023-06-10T03:06:54;22.70;99.20
23120;DHT22;11729;50.836;4.330;2023-06-10T03:09:20;22.50;99.90
23120;DHT22;11729;50.836;4.330;2023-06-10T03:11:46;22.50;99.90
23120;DHT22;11729;50.836;4.330;2023-06-10T03:14:11;22.50;99.90
23120;DHT22;11729;50.836;4.330;2023-06-10T03:16:37;22.40;99.90
23120;DHT22;11729;50.836;4.330;2023-06-10T03:19:06;22.30;99.90
23120;DHT22;11729;50.836;4.330;2023-06-10T03:21:33;22.20;99.90
23120;DHT22;11729;50.836;4.330;2023-06-10T03:23:58;22.30;99.90
23120;DHT22;11729;50.836;4.330;2023-06-10T03:26:25;22.50;99.90
23120;DHT22;11729;50.836;4.330;2023-06-10T03:28:51;22.40;99.90
23120;DHT22;11729;50.836;4.330;2023-06-10T03:31:17;22.30;99.90
23120;DHT22;11729;50.836;4.330;2023-06-10T03:33:43;22.30;99.90
23120;DHT22;11729;50.836;4.330;2023-06-10T03:36:08;22.40;99.90
23120;DHT22;11729;50.836;4.330;2023-06-10T03:38:35;22.40;99.90
23120;DHT22;11729;50.836;4.330;2023-06-10T03:41:01;22.30;99.90
23120;DHT22;11729;50.836;4.330;2023-06-10T03:43:26;22.20;99.90
23120;DHT22;11729;50.836;4.330;2023-06-10T03:45:53;22.20;99.90
23120;DHT22;11729;50.836;4.330;2023-06-10T03:48:18;22.10;99.90
23120;DHT22;11729;50.836;4.330;2023-06-10T03:50:44;22.10;99.90
23120;DHT22;11729;50.836;4.330;2023-06-10T03:53:10;22.10;99.90
23120;DHT22;11729;50.836;4.330;2023-06-10T03:55:35;22.10;99.90
23120;DHT22;11729;50.836;4.330;2023-06-10T03:58:01;22.10;99.90
23120;DHT22;11729;50.836;4.330;2023-06-10T04:00:27;22.00;99.90
23120;DHT22;11729;50.836;4.330;2023-06-10T04:02:54;22.00;99.90
23120;DHT22;11729;50.836;4.330;2023-06-10T04:05:23;22.00;99.90
23120;DHT22;11729;50.836;4.330;2023-06-10T04:07:49;22.00;99.90
23120;DHT22;11729;50.836;4.330;2023-06-10T04:10:15;21.90;99.90
23120;DHT22;11729;50.836;4.330;2023-06-10T04:12:41;21.90;99.90
23120;DHT22;11729;50.836;4.330;2023-06-10T04:15:07;21.90;99.90
23120;DHT22;11729;50.836;4.330;2023-06-10T04:17:33;21.90;99.90
23120;DHT22;11729;50.836;4.330;2023-06-10T04:19:59;21.90;99.90
23120;DHT22;11729;50.836;4.330;2023-06-10T04:22:26;22.10;99.90
23120;DHT22;11729;50.836;4.330;2023-06-10T04:24:52;22.10;99.90
23120;DHT22;11729;50.836;4.330;2023-06-10T04:27:17;22.20;99.90
23120;DHT22;11729;50.836;4.330;2023-06-10T04:29:43;22.30;99.90
23120;DHT22;11729;50.836;4.330;2023-06-10T04:32:09;22.30;99.90
23120;DHT22;11729;50.836;4.330;2023-06-10T04:34:34;22.30;99.90
23120;DHT22;11729;50.836;4.330;2023-06-10T04:37:00;22.40;99.90
23120;DHT22;11729;50.836;4.330;2023-06-10T04:39:27;22.40;99.90
23120;DHT22;11729;50.836;4.330;2023-06-10T04:41:52;22.60;99.90
23120;DHT22;11729;50.836;4.330;2023-06-10T04:44:18;22.70;99.90
23120;DHT22;11729;50.836;4.330;2023-06-10T04:46:44;22.50;99.90
23120;DHT22;11729;50.836;4.330;2023-06-10T04:49:10;22.50;99.90
23120;DHT22;11729;50.836;4.330;2023-06-10T04:51:36;22.60;99.90
23120;DHT22;11729;50.836;4.330;2023-06-10T04:54:03;22.50;99.90
23120;DHT22;11729;50.836;4.330;2023-06-10T04:56:30;22.40;99.90
23120;DHT22;11729;50.836;4.330;2023-06-10T04:58:57;22.50;99.90
23120;DHT22;11729;50.836;4.330;2023-06-10T05:01:22;22.70;99.90
23120;DHT22;11729;50.836;4.330;2023-06-10T05:03:48;22.70;99.90
23120;DHT22;11729;50.836;4.330;2023-06-10T05:06:14;22.80;99.90
23120;DHT22;11729;50.836;4.330;2023-06-10T05:08:40;22.80;99.90
23120;DHT22;11729;50.836;4.330;2023-06-10T05:11:05;22.80;99.90
23120;DHT22;11729;50.836;4.330;2023-06-10T05:13:31;22.70;99.90
23120;DHT22;11729;50.836;4.330;2023-06-10T05:15:58;22.70;99.90
23120;DHT22;11729;50.836;4.330;2023-06-10T05:18:23;22.70;99.90
23120;DHT22;11729;50.836;4.330;2023-06-10T05:20:49;22.70;99.90
23120;DHT22;11729;50.836;4.330;2023-06-10T05:23:15;22.90;99.90
23120;DHT22;11729;50.836;4.330;2023-06-10T05:25:41;22.90;99.90
23120;DHT22;11729;50.836;4.330;2023-06-10T05:28:07;23.00;99.90
23120;DHT22;11729;50.836;4.330;2023-06-10T05:30:35;22.80;99.90
23120;DHT22;11729;50.836;4.330;2023-06-10T05:33:01;22.90;99.90
23120;DHT22;11729;50.836;4.330;2023-06-10T05:35:26;22.90;99.90
23120;DHT22;11729;50.836;4.330;2023-06-10T05:37:52;22.90;99.90
23120;DHT22;11729;50.836;4.330;2023-06-10T05:40:18;23.10;99.90
23120;DHT22;11729;50.836;4.330;2023-06-10T05:42:44;23.30;99.90
23120;DHT22;11729;50.836;4.330;2023-06-10T05:45:10;23.90;99.90
23120;DHT22;11729;50.836;4.330;2023-06-10T05:47:35;25.10;99.90
23120;DHT22;11729;50.836;4.330;2023-06-10T05:50:01;26.60;97.00
23120;DHT22;11729;50.836;4.330;2023-06-10T05:52:28;28.10;94.30
23120;DHT22;11729;50.836;4.330;2023-06-10T05:54:53;29.40;88.50
23120;DHT22;11729;50.836;4.330;2023-06-10T05:57:20;30.80;83.10
23120;DHT22;11729;50.836;4.330;2023-06-10T05:59:45;31.50;77.30
23120;DHT22;11729;50.836;4.330;2023-06-10T06:02:11;32.00;73.50
23120;DHT22;11729;50.836;4.330;2023-06-10T06:04:36;32.80;72.00
23120;DHT22;11729;50.836;4.330;2023-06-10T06:07:02;33.90;69.90
23120;DHT22;11729;50.836;4.330;2023-06-10T06:09:28;34.70;65.60
23120;DHT22;11729;50.836;4.330;2023-06-10T06:11:53;34.70;63.80
23120;DHT22;11729;50.836;4.330;2023-06-10T06:14:19;35.30;61.70
23120;DHT22;11729;50.836;4.330;2023-06-10T06:16:44;35.70;58.70
23120;DHT22;11729;50.836;4.330;2023-06-10T06:19:10;36.10;58.40
23120;DHT22;11729;50.836;4.330;2023-06-10T06:21:36;36.10;56.80
23120;DHT22;11729;50.836;4.330;2023-06-10T06:24:02;35.40;57.90
23120;DHT22;11729;50.836;4.330;2023-06-10T06:26:28;35.40;57.00
23120;DHT22;11729;50.836;4.330;2023-06-10T06:28:53;36.00;56.70
23120;DHT22;11729;50.836;4.330;2023-06-10T06:31:19;37.00;55.80
23120;DHT22;11729;50.836;4.330;2023-06-10T06:33:44;37.10;54.70
23120;DHT22;11729;50.836;4.330;2023-06-10T06:36:10;37.70;54.80
23120;DHT22;11729;50.836;4.330;2023-06-10T06:38:36;37.70;52.00
23120;DHT22;11729;50.836;4.330;2023-06-10T06:41:02;36.80;52.20
23120;DHT22;11729;50.836;4.330;2023-06-10T06:43:31;35.70;53.40
23120;DHT22;11729;50.836;4.330;2023-06-10T06:45:57;35.90;53.60
23120;DHT22;11729;50.836;4.330;2023-06-10T06:48:24;36.00;54.00
23120;DHT22;11729;50.836;4.330;2023-06-10T06:50:50;36.60;53.80
23120;DHT22;11729;50.836;4.330;2023-06-10T06:53:16;35.10;53.50
23120;DHT22;11729;50.836;4.330;2023-06-10T06:55:41;35.10;55.10
23120;DHT22;11729;50.836;4.330;2023-06-10T06:58:07;35.80;54.00
23120;DHT22;11729;50.836;4.330;2023-06-10T07:00:32;35.50;53.50
23120;DHT22;11729;50.836;4.330;2023-06-10T07:02:59;35.10;54.90
23120;DHT22;11729;50.836;4.330;2023-06-10T07:05:24;36.30;55.90
23120;DHT22;11729;50.836;4.330;2023-06-10T07:07:56;37.10;52.60
23120;DHT22;11729;50.836;4.330;2023-06-10T07:10:22;37.20;52.70
23120;DHT22;11729;50.836;4.330;2023-06-10T07:12:48;37.00;51.90
23120;DHT22;11729;50.836;4.330;2023-06-10T07:15:14;37.30;51.90
23120;DHT22;11729;50.836;4.330;2023-06-10T07:17:40;37.10;52.20
23120;DHT22;11729;50.836;4.330;2023-06-10T07:20:06;37.00;51.10
23120;DHT22;11729;50.836;4.330;2023-06-10T07:22:31;37.30;51.10
23120;DHT22;11729;50.836;4.330;2023-06-10T07:24:57;36.20;49.40
23120;DHT22;11729;50.836;4.330;2023-06-10T07:27:23;36.70;51.30
23120;DHT22;11729;50.836;4.330;2023-06-10T07:29:50;36.30;51.30
23120;DHT22;11729;50.836;4.330;2023-06-10T07:32:16;35.30;51.20
23120;DHT22;11729;50.836;4.330;2023-06-10T07:34:41;34.60;53.20
23120;DHT22;11729;50.836;4.330;2023-06-10T07:37:08;35.80;52.90
23120;DHT22;11729;50.836;4.330;2023-06-10T07:39:34;35.40;52.50
23120;DHT22;11729;50.836;4.330;2023-06-10T07:42:00;36.70;52.60
23120;DHT22;11729;50.836;4.330;2023-06-10T07:44:26;36.30;51.30
23120;DHT22;11729;50.836;4.330;2023-06-10T07:46:51;36.30;50.50
23120;DHT22;11729;50.836;4.330;2023-06-10T07:49:17;36.40;50.70
23120;DHT22;11729;50.836;4.330;2023-06-10T07:51:43;37.10;49.60
23120;DHT22;11729;50.836;4.330;2023-06-10T07:54:08;37.80;50.50
23120;DHT22;11729;50.836;4.330;2023-06-10T07:56:34;38.20;48.20
23120;DHT22;11729;50.836;4.330;2023-06-10T07:59:00;38.80;47.70
23120;DHT22;11729;50.836;4.330;2023-06-10T08:01:25;37.70;47.50
23120;DHT22;11729;50.836;4.330;2023-06-10T08:03:51;37.10;48.90
23120;DHT22;11729;50.836;4.330;2023-06-10T08:06:16;38.00;47.30
23120;DHT22;11729;50.836;4.330;2023-06-10T08:08:43;37.10;48.70
23120;DHT22;11729;50.836;4.330;2023-06-10T08:11:12;36.40;49.90
23120;DHT22;11729;50.836;4.330;2023-06-10T08:13:38;36.00;49.60
23120;DHT22;11729;50.836;4.330;2023-06-10T08:16:05;36.30;50.70
23120;DHT22;11729;50.836;4.330;2023-06-10T08:18:30;37.10;49.50
23120;DHT22;11729;50.836;4.330;2023-06-10T08:20:56;37.50;48.30
23120;DHT22;11729;50.836;4.330;2023-06-10T08:23:22;37.90;47.40
23120;DHT22;11729;50.836;4.330;2023-06-10T08:25:47;38.70;47.50
23120;DHT22;11729;50.836;4.330;2023-06-10T08:28:13;39.60;47.40
23120;DHT22;11729;50.836;4.330;2023-06-10T08:30:38;39.20;44.60
23120;DHT22;11729;50.836;4.330;2023-06-10T08:33:04;38.60;45.60
23120;DHT22;11729;50.836;4.330;2023-06-10T08:35:30;37.10;46.80
23120;DHT22;11729;50.836;4.330;2023-06-10T08:37:55;37.20;47.10
23120;DHT22;11729;50.836;4.330;2023-06-10T08:40:21;37.20;48.00
23120;DHT22;11729;50.836;4.330;2023-06-10T08:42:58;37.00;47.40
23120;DHT22;11729;50.836;4.330;2023-06-10T08:45:30;36.80;47.50
23120;DHT22;11729;50.836;4.330;2023-06-10T08:48:02;36.50;48.90
23120;DHT22;11729;50.836;4.330;2023-06-10T08:50:35;36.00;50.90
23120;DHT22;11729;50.836;4.330;2023-06-10T08:53:06;36.80;48.60
23120;DHT22;11729;50.836;4.330;2023-06-10T08:55:35;36.40;48.10
23120;DHT22;11729;50.836;4.330;2023-06-10T08:58:02;35.60;48.80
23120;DHT22;11729;50.836;4.330;2023-06-10T09:00:29;35.80;50.60
23120;DHT22;11729;50.836;4.330;2023-06-10T09:02:56;36.50;48.30
23120;DHT22;11729;50.836;4.330;2023-06-10T09:05:23;36.40;48.10
23120;DHT22;11729;50.836;4.330;2023-06-10T09:07:49;36.30;48.00
23120;DHT22;11729;50.836;4.330;2023-06-10T09:10:16;36.00;48.20
23120;DHT22;11729;50.836;4.330;2023-06-10T09:12:42;36.00;49.00
23120;DHT22;11729;50.836;4.330;2023-06-10T09:15:08;36.70;48.10
23120;DHT22;11729;50.836;4.330;2023-06-10T09:17:35;36.40;47.60
23120;DHT22;11729;50.836;4.330;2023-06-10T09:20:06;36.00;47.90
23120;DHT22;11729;50.836;4.330;2023-06-10T09:22:33;34.50;51.50
23120;DHT22;11729;50.836;4.330;2023-06-10T09:25:03;35.80;51.90
23120;DHT22;11729;50.836;4.330;2023-06-10T09:27:31;36.10;48.90
23120;DHT22;11729;50.836;4.330;2023-06-10T09:30:00;35.80;49.30
23120;DHT22;11729;50.836;4.330;2023-06-10T09:32:26;36.60;50.10
23120;DHT22;11729;50.836;4.330;2023-06-10T09:34:52;36.70;48.90
23120;DHT22;11729;50.836;4.330;2023-06-10T09:37:22;37.20;47.60
23120;DHT22;11729;50.836;4.330;2023-06-10T09:40:05;37.30;46.80
23120;DHT22;11729;50.836;4.330;2023-06-10T09:42:38;37.10;47.00
23120;DHT22;11729;50.836;4.330;2023-06-10T09:45:06;36.00;48.60
23120;DHT22;11729;50.836;4.330;2023-06-10T09:47:32;35.00;50.10
23120;DHT22;11729;50.836;4.330;2023-06-10T09:49:58;36.10;50.10
23120;DHT22;11729;50.836;4.330;2023-06-10T09:52:28;37.20;48.80
23120;DHT22;11729;50.836;4.330;2023-06-10T09:54:59;36.90;48.10
23120;DHT22;11729;50.836;4.330;2023-06-10T09:57:26;37.10;49.40
23120;DHT22;11729;50.836;4.330;2023-06-10T09:59:55;37.60;46.80
23120;DHT22;11729;50.836;4.330;2023-06-10T10:02:21;37.70;45.20
23120;DHT22;11729;50.836;4.330;2023-06-10T10:04:47;37.70;45.70
23120;DHT22;11729;50.836;4.330;2023-06-10T10:07:14;37.50;45.00
23120;DHT22;11729;50.836;4.330;2023-06-10T10:09:40;37.30;45.90
23120;DHT22;11729;50.836;4.330;2023-06-10T10:12:09;36.30;46.00
23120;DHT22;11729;50.836;4.330;2023-06-10T10:14:37;35.90;47.20
23120;DHT22;11729;50.836;4.330;2023-06-10T10:17:07;36.00;47.80
23120;DHT22;11729;50.836;4.330;2023-06-10T10:19:48;35.60;47.80
23120;DHT22;11729;50.836;4.330;2023-06-10T10:22:27;36.60;47.40
23120;DHT22;11729;50.836;4.330;2023-06-10T10:25:01;36.40;45.90
23120;DHT22;11729;50.836;4.330;2023-06-10T10:27:51;35.40;46.30
23120;DHT22;11729;50.836;4.330;2023-06-10T10:30:14;36.40;46.20
23120;DHT22;11729;50.836;4.330;2023-06-10T10:32:57;35.90;44.90
23120;DHT22;11729;50.836;4.330;2023-06-10T10:35:25;35.90;46.80
23120;DHT22;11729;50.836;4.330;2023-06-10T10:37:54;35.10;46.90
23120;DHT22;11729;50.836;4.330;2023-06-10T10:40:21;34.70;46.80
23120;DHT22;11729;50.836;4.330;2023-06-10T10:42:49;34.70;46.50
23120;DHT22;11729;50.836;4.330;2023-06-10T10:45:15;34.00;47.10
23120;DHT22;11729;50.836;4.330;2023-06-10T10:47:45;33.80;47.80
23120;DHT22;11729;50.836;4.330;2023-06-10T10:50:19;34.40;45.80
23120;DHT22;11729;50.836;4.330;2023-06-10T10:55:20;33.50;45.90
23120;DHT22;11729;50.836;4.330;2023-06-10T10:57:54;33.70;46.80
23120;DHT22;11729;50.836;4.330;2023-06-10T11:00:36;33.80;45.60
23120;DHT22;11729;50.836;4.330;2023-06-10T11:05:35;34.50;45.30
23120;DHT22;11729;50.836;4.330;2023-06-10T11:08:01;35.10;46.20
23120;DHT22;11729;50.836;4.330;2023-06-10T11:10:34;36.10;44.10
23120;DHT22;11729;50.836;4.330;2023-06-10T11:13:09;36.60;44.40
23120;DHT22;11729;50.836;4.330;2023-06-10T11:15:42;37.50;43.60
23120;DHT22;11729;50.836;4.330;2023-06-10T11:33:56;35.30;42.80
23120;DHT22;11729;50.836;4.330;2023-06-10T11:36:22;35.60;43.40
23120;DHT22;11729;50.836;4.330;2023-06-10T11:38:48;36.60;43.70
23120;DHT22;11729;50.836;4.330;2023-06-10T11:41:14;36.20;41.80
23120;DHT22;11729;50.836;4.330;2023-06-10T11:43:44;36.70;42.20
23120;DHT22;11729;50.836;4.330;2023-06-10T11:46:14;36.10;42.60
23120;DHT22;11729;50.836;4.330;2023-06-10T11:48:51;36.00;42.70
23120;DHT22;11729;50.836;4.330;2023-06-10T11:51:17;35.80;42.10
23120;DHT22;11729;50.836;4.330;2023-06-10T11:53:44;35.70;41.80
23120;DHT22;11729;50.836;4.330;2023-06-10T11:56:10;35.60;42.60
23120;DHT22;11729;50.836;4.330;2023-06-10T11:58:36;36.10;43.00
23120;DHT22;11729;50.836;4.330;2023-06-10T12:01:04;36.50;41.90
23120;DHT22;11729;50.836;4.330;2023-06-10T12:03:37;37.00;40.50
23120;DHT22;11729;50.836;4.330;2023-06-10T12:06:06;36.90;40.50
23120;DHT22;11729;50.836;4.330;2023-06-10T12:08:32;36.40;41.60
23120;DHT22;11729;50.836;4.330;2023-06-10T12:10:58;36.30;41.70
23120;DHT22;11729;50.836;4.330;2023-06-10T12:13:26;36.80;41.10
23120;DHT22;11729;50.836;4.330;2023-06-10T12:15:52;37.00;40.40
23120;DHT22;11729;50.836;4.330;2023-06-10T12:18:22;37.20;40.40
23120;DHT22;11729;50.836;4.330;2023-06-10T12:20:49;36.90;41.00
23120;DHT22;11729;50.836;4.330;2023-06-10T12:23:17;37.90;40.80
23120;DHT22;11729;50.836;4.330;2023-06-10T12:25:55;38.60;40.90
23120;DHT22;11729;50.836;4.330;2023-06-10T12:28:22;39.00;39.10
23120;DHT22;11729;50.836;4.330;2023-06-10T12:30:47;39.20;38.30
23120;DHT22;11729;50.836;4.330;2023-06-10T12:33:20;39.20;39.70
23120;DHT22;11729;50.836;4.330;2023-06-10T12:35:50;39.80;40.10
23120;DHT22;11729;50.836;4.330;2023-06-10T12:38:25;39.70;38.20
23120;DHT22;11729;50.836;4.330;2023-06-10T12:41:00;39.60;37.70
23120;DHT22;11729;50.836;4.330;2023-06-10T12:43:26;38.90;39.50
23120;DHT22;11729;50.836;4.330;2023-06-10T12:45:52;37.20;39.60
23120;DHT22;11729;50.836;4.330;2023-06-10T12:48:23;37.70;39.70
23120;DHT22;11729;50.836;4.330;2023-06-10T12:50:57;37.90;39.70
23120;DHT22;11729;50.836;4.330;2023-06-10T12:53:24;38.90;39.20
23120;DHT22;11729;50.836;4.330;2023-06-10T12:55:51;38.60;39.10
23120;DHT22;11729;50.836;4.330;2023-06-10T12:58:16;37.70;39.40
23120;DHT22;11729;50.836;4.330;2023-06-10T13:00:42;38.00;39.10
23120;DHT22;11729;50.836;4.330;2023-06-10T13:03:10;37.70;39.00
23120;DHT22;11729;50.836;4.330;2023-06-10T13:05:36;37.90;40.40
23120;DHT22;11729;50.836;4.330;2023-06-10T13:08:06;39.00;41.70
23120;DHT22;11729;50.836;4.330;2023-06-10T13:10:33;40.00;37.80
23120;DHT22;11729;50.836;4.330;2023-06-10T13:13:00;39.60;37.80
23120;DHT22;11729;50.836;4.330;2023-06-10T13:15:27;37.90;39.40
23120;DHT22;11729;50.836;4.330;2023-06-10T13:17:52;38.20;40.60
23120;DHT22;11729;50.836;4.330;2023-06-10T13:20:19;38.30;39.50
23120;DHT22;11729;50.836;4.330;2023-06-10T13:22:45;38.20;39.50
23120;DHT22;11729;50.836;4.330;2023-06-10T13:25:11;37.70;39.60
23120;DHT22;11729;50.836;4.330;2023-06-10T13:27:38;36.80;41.10
23120;DHT22;11729;50.836;4.330;2023-06-10T13:30:08;36.30;41.80
23120;DHT22;11729;50.836;4.330;2023-06-10T13:32:35;36.00;42.10
23120;DHT22;11729;50.836;4.330;2023-06-10T13:35:01;35.50;42.00
23120;DHT22;11729;50.836;4.330;2023-06-10T13:37:27;34.90;42.80
23120;DHT22;11729;50.836;4.330;2023-06-10T13:39:52;34.30;43.90
23120;DHT22;11729;50.836;4.330;2023-06-10T13:42:19;33.50;43.80
23120;DHT22;11729;50.836;4.330;2023-06-10T13:44:45;33.10;45.60
23120;DHT22;11729;50.836;4.330;2023-06-10T13:47:13;33.30;45.00
23120;DHT22;11729;50.836;4.330;2023-06-10T13:49:39;33.10;45.40
23120;DHT22;11729;50.836;4.330;2023-06-10T13:52:06;33.10;45.20
23120;DHT22;11729;50.836;4.330;2023-06-10T13:54:32;33.00;45.40
23120;DHT22;11729;50.836;4.330;2023-06-10T13:56:58;32.70;45.40
23120;DHT22;11729;50.836;4.330;2023-06-10T13:59:24;32.90;45.80
23120;DHT22;11729;50.836;4.330;2023-06-10T14:01:50;33.00;46.50
23120;DHT22;11729;50.836;4.330;2023-06-10T14:04:15;32.70;46.10
23120;DHT22;11729;50.836;4.330;2023-06-10T14:06:41;32.80;46.00
23120;DHT22;11729;50.836;4.330;2023-06-10T14:09:06;32.70;46.10
23120;DHT22;11729;50.836;4.330;2023-06-10T14:11:32;32.60;45.80
23120;DHT22;11729;50.836;4.330;2023-06-10T14:13:58;32.80;46.20
23120;DHT22;11729;50.836;4.330;2023-06-10T14:16:27;33.20;45.70
23120;DHT22;11729;50.836;4.330;2023-06-10T14:18:52;33.20;46.10
23120;DHT22;11729;50.836;4.330;2023-06-10T14:21:18;33.40;46.10
23120;DHT22;11729;50.836;4.330;2023-06-10T14:23:44;33.40;44.60
23120;DHT22;11729;50.836;4.330;2023-06-10T14:26:11;33.10;44.90
23120;DHT22;11729;50.836;4.330;2023-06-10T14:28:37;33.00;44.60
23120;DHT22;11729;50.836;4.330;2023-06-10T14:31:03;32.90;44.90
23120;DHT22;11729;50.836;4.330;2023-06-10T14:33:30;32.70;45.50
23120;DHT22;11729;50.836;4.330;2023-06-10T14:35:56;32.50;46.10
23120;DHT22;11729;50.836;4.330;2023-06-10T14:38:22;32.40;46.10
23120;DHT22;11729;50.836;4.330;2023-06-10T14:40:51;32.50;45.90
23120;DHT22;11729;50.836;4.330;2023-06-10T14:43:18;32.60;46.50
23120;DHT22;11729;50.836;4.330;2023-06-10T14:45:45;32.60;45.90
23120;DHT22;11729;50.836;4.330;2023-06-10T14:48:11;32.10;46.50
23120;DHT22;11729;50.836;4.330;2023-06-10T14:50:38;32.00;45.90
23120;DHT22;11729;50.836;4.330;2023-06-10T14:53:06;31.70;46.40
23120;DHT22;11729;50.836;4.330;2023-06-10T14:55:33;31.80;46.40
23120;DHT22;11729;50.836;4.330;2023-06-10T14:57:59;32.00;46.30
23120;DHT22;11729;50.836;4.330;2023-06-10T15:00:25;32.10;47.20
23120;DHT22;11729;50.836;4.330;2023-06-10T15:02:51;32.40;46.00
23120;DHT22;11729;50.836;4.330;2023-06-10T15:05:18;32.30;45.80
23120;DHT22;11729;50.836;4.330;2023-06-10T15:07:45;32.30;47.40
23120;DHT22;11729;50.836;4.330;2023-06-10T15:10:18;32.40;46.70
23120;DHT22;11729;50.836;4.330;2023-06-10T15:12:46;32.60;46.80
23120;DHT22;11729;50.836;4.330;2023-06-10T15:15:12;32.30;45.90
23120;DHT22;11729;50.836;4.330;2023-06-10T15:17:38;32.20;46.00
23120;DHT22;11729;50.836;4.330;2023-06-10T15:20:04;32.30;46.50
23120;DHT22;11729;50.836;4.330;2023-06-10T15:22:31;32.20;46.10
23120;DHT22;11729;50.836;4.330;2023-06-10T15:25:03;32.20;45.90
23120;DHT22;11729;50.836;4.330;2023-06-10T15:27:29;32.10;45.90
23120;DHT22;11729;50.836;4.330;2023-06-10T15:29:55;31.80;46.10
23120;DHT22;11729;50.836;4.330;2023-06-10T15:32:21;31.80;46.40
23120;DHT22;11729;50.836;4.330;2023-06-10T15:34:46;31.70;46.30
23120;DHT22;11729;50.836;4.330;2023-06-10T15:37:14;31.50;46.70
23120;DHT22;11729;50.836;4.330;2023-06-10T15:39:40;31.40;47.20
23120;DHT22;11729;50.836;4.330;2023-06-10T15:42:06;31.60;47.10
23120;DHT22;11729;50.836;4.330;2023-06-10T15:44:32;31.70;47.10
23120;DHT22;11729;50.836;4.330;2023-06-10T15:46:57;31.70;47.00
23120;DHT22;11729;50.836;4.330;2023-06-10T15:49:23;31.70;47.00
23120;DHT22;11729;50.836;4.330;2023-06-10T15:51:49;31.70;46.90
23120;DHT22;11729;50.836;4.330;2023-06-10T15:54:14;31.80;47.10